createdAt,value
2022-11-10T00:04:47.521Z,9.68
2022-11-10T00:10:17.732Z,9.60
2022-11-10T00:13:03.292Z,9.32
2022-11-10T00:16:07.374Z,9.65
2022-11-10T00:18:52.720Z,9.00
2022-11-10T00:21:37.994Z,9.35
2022-11-10T00:24:23.965Z,9.65
2022-11-10T00:27:09.085Z,9.80
2022-11-10T00:29:54.551Z,9.77
2022-11-10T00:32:39.862Z,8.50
2022-11-10T00:35:24.794Z,9.40
2022-11-10T00:38:10.179Z,9.10
2022-11-10T00:43:40.452Z,8.95
2022-11-10T00:46:26.190Z,9.70
2022-11-10T00:49:11.576Z,9.57
2022-11-10T00:51:56.719Z,9.25
2022-11-10T00:57:26.779Z,9.40
2022-11-10T01:02:57.145Z,9.55
2022-11-10T01:05:43.139Z,9.10
2022-11-10T01:08:28.128Z,8.82
2022-11-10T01:11:18.123Z,8.80
2022-11-10T01:14:03.832Z,9.18
2022-11-10T01:16:49.096Z,8.57
2022-11-10T01:22:19.297Z,8.68
2022-11-10T01:25:05.395Z,9.00
2022-11-10T01:27:51.686Z,8.75
2022-11-10T01:30:37.047Z,9.05
2022-11-10T01:33:22.872Z,8.57
2022-11-10T01:36:09.732Z,8.10
2022-11-10T01:38:54.709Z,8.68
2022-11-10T01:41:40.091Z,8.45
2022-11-10T01:44:26.394Z,9.20
2022-11-10T01:47:11.540Z,8.60
2022-11-10T01:49:56.718Z,8.52
2022-11-10T01:52:44.489Z,8.38
2022-11-10T01:55:30.302Z,8.60
2022-11-10T01:58:17.064Z,8.23
2022-11-10T02:01:02.468Z,8.18
2022-11-10T02:03:54.037Z,8.18
2022-11-10T02:06:42.403Z,8.07
2022-11-10T02:09:27.303Z,8.27
2022-11-10T02:12:12.868Z,8.35
2022-11-10T02:14:57.913Z,8.40
2022-11-10T02:17:44.584Z,9.23
2022-11-10T02:20:29.657Z,8.73
2022-11-10T02:23:34.795Z,8.90
2022-11-10T02:26:28.256Z,8.57
2022-11-10T02:29:14.106Z,8.27
2022-11-10T02:31:59.379Z,8.43
2022-11-10T02:34:44.476Z,8.23
2022-11-10T02:37:30.045Z,8.27
2022-11-10T02:40:15.573Z,8.55
2022-11-10T02:43:01.284Z,8.77
2022-11-10T02:45:46.666Z,8.73
2022-11-10T02:48:32.121Z,9.15
2022-11-10T02:51:17.398Z,8.75
2022-11-10T02:54:03.102Z,9.70
2022-11-10T02:56:48.439Z,9.07
2022-11-10T02:59:33.801Z,9.30
2022-11-10T03:02:19.163Z,7.20
2022-11-10T03:05:04.935Z,6.53
2022-11-10T03:07:58.056Z,6.63
2022-11-10T03:10:43.329Z,6.25
2022-11-10T03:13:44.971Z,6.82
2022-11-10T03:16:33.341Z,6.82
2022-11-10T03:19:18.774Z,6.80
2022-11-10T03:22:04.139Z,6.55
2022-11-10T03:24:49.189Z,6.60
2022-11-10T03:30:19.457Z,7.93
2022-11-10T03:33:05.061Z,7.30
2022-11-10T03:35:50.621Z,6.22
2022-11-10T03:41:21.228Z,6.43
2022-11-10T03:44:06.967Z,6.47
2022-11-10T03:49:37.444Z,6.72
2022-11-10T03:52:22.863Z,6.47
2022-11-10T03:55:09.482Z,6.90
2022-11-10T03:57:55.082Z,6.40
2022-11-10T04:03:26.149Z,6.85
2022-11-10T04:06:30.436Z,7.25
2022-11-10T04:09:15.546Z,6.88
2022-11-10T04:12:23.662Z,6.95
2022-11-10T04:15:30.187Z,6.85
2022-11-10T04:18:22.138Z,7.10
2022-11-10T04:21:07.100Z,7.15
2022-11-10T04:23:51.994Z,6.65
2022-11-10T04:29:26.309Z,6.97
2022-11-10T04:32:11.541Z,6.63
2022-11-10T04:34:57.193Z,7.13
2022-11-10T04:37:42.646Z,7.38
2022-11-10T04:40:27.969Z,6.78
2022-11-10T04:43:13.402Z,6.55
2022-11-10T04:48:44.396Z,6.85
2022-11-10T04:51:32.304Z,6.38
2022-11-10T04:54:17.805Z,6.80
2022-11-10T04:57:03.087Z,7.07
2022-11-10T04:59:48.436Z,7.00
2022-11-10T05:02:39.273Z,7.30
2022-11-10T05:05:24.602Z,7.03
2022-11-10T05:08:10.475Z,6.25
2022-11-10T05:10:55.557Z,7.45
2022-11-10T05:13:41.612Z,6.93
2022-11-10T05:16:26.662Z,6.97
2022-11-10T05:19:11.886Z,6.82
2022-11-10T05:21:57.318Z,6.88
2022-11-10T05:24:42.303Z,6.40
2022-11-10T05:27:27.814Z,7.22
2022-11-10T05:30:12.998Z,7.20
2022-11-10T05:32:58.712Z,6.50
2022-11-10T05:35:44.312Z,6.38
2022-11-10T05:41:14.592Z,6.20
2022-11-10T05:43:59.602Z,6.65
2022-11-10T05:46:44.994Z,5.65
2022-11-10T05:52:15.490Z,6.13
2022-11-10T05:57:47.268Z,5.87
2022-11-10T06:00:32.688Z,5.53
2022-11-10T06:03:19.858Z,5.53
2022-11-10T06:06:05.566Z,6.38
2022-11-10T06:08:50.677Z,5.40
2022-11-10T06:14:21.101Z,5.17
2022-11-10T06:19:51.456Z,4.88
2022-11-10T06:22:37.150Z,5.45
2022-11-10T06:25:22.750Z,5.53
2022-11-10T06:28:09.280Z,5.38
2022-11-10T06:30:57.088Z,5.13
2022-11-10T06:33:43.039Z,5.05
2022-11-10T06:36:28.063Z,5.25
2022-11-10T06:39:13.306Z,4.70
2022-11-10T06:41:58.649Z,4.50
2022-11-10T06:44:43.662Z,5.38
2022-11-10T06:47:29.924Z,4.70
2022-11-10T06:50:15.408Z,5.00
2022-11-10T06:53:01.269Z,5.30
2022-11-10T06:55:46.346Z,4.82
2022-11-10T07:01:21.272Z,4.80
2022-11-10T07:04:19.321Z,5.07
2022-11-10T07:07:05.533Z,5.00
2022-11-10T07:09:50.779Z,5.10
2022-11-10T07:12:36.056Z,5.10
2022-11-10T07:15:21.458Z,5.40
2022-11-10T07:18:07.400Z,5.38
2022-11-10T07:20:52.597Z,5.00
2022-11-10T07:23:37.616Z,4.72
2022-11-10T07:29:07.764Z,5.10
2022-11-10T07:31:53.245Z,4.72
2022-11-10T07:37:23.784Z,5.03
2022-11-10T07:42:54.776Z,4.72
2022-11-10T07:48:25.213Z,4.70
2022-11-10T07:51:10.573Z,4.80
2022-11-10T07:53:55.640Z,4.72
2022-11-10T07:56:42.294Z,4.65
2022-11-10T07:59:27.314Z,4.93
2022-11-10T08:04:57.749Z,3.97
2022-11-10T08:10:29.264Z,4.70
2022-11-10T08:13:14.367Z,4.30
2022-11-10T08:15:59.608Z,4.80
2022-11-10T08:18:44.893Z,4.43
2022-11-10T08:24:15.303Z,4.40
2022-11-10T08:27:00.501Z,4.35
2022-11-10T08:29:45.864Z,4.50
2022-11-10T08:32:31.108Z,4.53
2022-11-10T08:35:16.160Z,4.30
2022-11-10T08:38:15.590Z,4.13
2022-11-10T08:41:00.512Z,3.90
2022-11-10T08:46:30.649Z,3.97
2022-11-10T08:49:16.088Z,4.15
2022-11-10T08:54:46.658Z,4.13
2022-11-10T08:57:31.998Z,4.40
2022-11-10T09:00:17.791Z,4.07
2022-11-10T09:03:05.884Z,4.30
2022-11-10T09:05:56.843Z,4.00
2022-11-10T09:08:43.530Z,4.07
2022-11-10T09:11:30.410Z,4.13
2022-11-10T09:14:15.784Z,4.00
2022-11-10T09:17:01.128Z,4.13
2022-11-10T09:22:31.283Z,3.70
2022-11-10T09:25:16.503Z,3.80
2022-11-10T09:28:02.339Z,3.70
2022-11-10T09:30:51.760Z,3.80
2022-11-10T09:33:36.873Z,3.80
2022-11-10T09:39:07.768Z,4.10
2022-11-10T09:41:53.229Z,4.10
2022-11-10T09:44:51.325Z,4.57
2022-11-10T09:47:57.002Z,5.57
2022-11-10T09:51:10.029Z,4.88
2022-11-10T09:53:55.352Z,5.20
2022-11-10T09:56:41.544Z,5.18
2022-11-10T09:59:29.473Z,5.05
2022-11-10T10:02:29.704Z,6.18
2022-11-10T10:05:26.792Z,5.80
2022-11-10T10:08:23.426Z,5.63
2022-11-10T10:11:17.936Z,5.70
2022-11-10T10:14:14.983Z,5.45
2022-11-10T10:17:31.864Z,5.55
2022-11-10T10:20:26.471Z,5.68
2022-11-10T10:23:26.931Z,5.68
2022-11-10T10:26:31.485Z,5.65
2022-11-10T10:29:30.896Z,5.63
2022-11-10T10:32:21.637Z,5.32
2022-11-10T10:35:06.965Z,5.18
2022-11-10T10:37:53.717Z,5.47
2022-11-10T10:40:39.071Z,5.35
2022-11-10T10:43:24.435Z,5.05
2022-11-10T10:46:12.269Z,5.40
2022-11-10T10:49:28.969Z,5.10
2022-11-10T10:52:24.989Z,4.97
2022-11-10T10:55:12.939Z,5.20
2022-11-10T10:58:00.845Z,5.20
2022-11-10T11:00:55.576Z,4.93
2022-11-10T11:03:45.297Z,4.70
2022-11-10T11:06:32.513Z,5.32
2022-11-10T11:09:22.837Z,5.07
2022-11-10T11:12:25.844Z,4.80
2022-11-10T11:15:19.243Z,4.70
2022-11-10T11:18:13.264Z,4.80
2022-11-10T11:21:14.332Z,4.80
2022-11-10T11:23:59.678Z,4.85
2022-11-10T11:26:53.300Z,4.57
2022-11-10T11:30:09.353Z,4.63
2022-11-10T11:33:23.809Z,4.53
2022-11-10T11:36:56.786Z,4.20
2022-11-10T11:39:57.219Z,4.40
2022-11-10T11:42:48.432Z,4.45
2022-11-10T11:45:41.038Z,4.30
2022-11-10T11:48:44.751Z,4.30
2022-11-10T11:51:35.554Z,4.40
2022-11-10T11:54:23.575Z,4.10
2022-11-10T11:57:42.740Z,3.97
2022-11-10T12:00:29.812Z,3.70
2022-11-10T12:03:39.047Z,4.22
2022-11-10T12:06:32.265Z,3.63
2022-11-10T12:09:38.792Z,3.67
2022-11-10T12:12:56.225Z,3.70
2022-11-10T12:15:53.197Z,3.65
2022-11-10T12:18:56.824Z,3.90
2022-11-10T12:22:03.314Z,4.07
2022-11-10T12:25:05.691Z,3.70
2022-11-10T12:28:15.459Z,4.10
2022-11-10T12:31:02.664Z,3.78
2022-11-10T12:33:52.044Z,3.50
2022-11-10T12:36:37.886Z,3.70
2022-11-10T12:39:58.211Z,3.65
2022-11-10T12:42:47.220Z,3.50
2022-11-10T12:45:45.537Z,3.50
2022-11-10T12:48:47.388Z,3.60
2022-11-10T12:51:50.483Z,3.58
2022-11-10T12:54:36.155Z,3.75
2022-11-10T12:57:27.134Z,3.25
2022-11-10T13:00:26.816Z,3.80
2022-11-10T13:03:15.416Z,3.50
2022-11-10T13:06:03.140Z,3.30
2022-11-10T13:08:49.772Z,3.50
2022-11-10T13:11:35.697Z,3.45
2022-11-10T13:14:26.054Z,3.35
2022-11-10T13:17:31.667Z,3.92
2022-11-10T13:20:53.399Z,3.50
2022-11-10T13:23:44.351Z,3.30
2022-11-10T13:26:44.830Z,3.40
2022-11-10T13:29:45.200Z,3.47
2022-11-10T13:37:00.937Z,3.33
2022-11-10T13:39:47.120Z,3.45
2022-11-10T13:42:33.062Z,3.05
2022-11-10T13:45:47.103Z,3.08
2022-11-10T13:49:26.858Z,3.50
2022-11-10T13:52:19.235Z,3.00
2022-11-10T13:55:20.229Z,3.30
2022-11-10T13:58:08.397Z,3.05
2022-11-10T14:01:18.689Z,3.10
2022-11-10T14:04:04.980Z,2.90
2022-11-10T14:06:55.083Z,3.33
2022-11-10T14:09:46.310Z,3.20
2022-11-10T14:12:37.637Z,3.25
2022-11-10T14:15:25.081Z,3.13
2022-11-10T14:18:25.679Z,3.03
2022-11-10T14:21:20.815Z,3.30
2022-11-10T14:24:18.570Z,3.10
2022-11-10T14:27:11.841Z,2.95
2022-11-10T14:30:27.038Z,2.67
2022-11-10T14:33:14.048Z,2.97
2022-11-10T14:36:01.392Z,2.90
2022-11-10T14:38:46.763Z,2.97
2022-11-10T14:41:32.666Z,2.80
2022-11-10T14:44:26.553Z,2.88
2022-11-10T14:47:15.889Z,2.53
2022-11-10T14:50:05.363Z,2.75
2022-11-10T14:53:21.574Z,3.00
2022-11-10T14:58:53.870Z,2.75
2022-11-10T15:01:42.238Z,2.70
2022-11-10T15:04:31.782Z,2.60
2022-11-10T15:07:17.966Z,2.85
2022-11-10T15:10:25.437Z,2.63
2022-11-10T15:13:13.611Z,3.00
2022-11-10T15:16:21.500Z,2.70
2022-11-10T15:19:20.966Z,2.70
2022-11-10T15:22:12.341Z,2.47
2022-11-10T15:25:00.645Z,2.58
2022-11-10T15:28:06.363Z,2.22
2022-11-10T15:30:56.934Z,2.40
2022-11-10T15:33:48.323Z,2.70
2022-11-10T15:36:40.895Z,2.60
2022-11-10T15:39:27.261Z,2.67
2022-11-10T15:42:17.952Z,2.35
2022-11-10T15:45:02.979Z,2.80
2022-11-10T15:47:48.265Z,2.88
2022-11-10T15:50:33.565Z,2.58
2022-11-10T15:53:24.983Z,2.70
2022-11-10T15:56:19.830Z,2.58
2022-11-10T15:59:05.111Z,2.67
2022-11-10T16:01:50.799Z,2.50
2022-11-10T16:04:36.078Z,2.63
2022-11-10T16:10:06.782Z,2.70
2022-11-10T16:12:51.752Z,2.55
2022-11-10T16:18:24.735Z,2.58
2022-11-10T16:21:14.635Z,2.38
2022-11-10T16:24:00.288Z,2.83
2022-11-10T16:26:45.795Z,2.78
2022-11-10T16:32:16.394Z,2.53
2022-11-10T16:35:01.628Z,2.65
2022-11-10T16:37:47.210Z,2.67
2022-11-10T16:43:17.999Z,2.60
2022-11-10T16:46:05.718Z,2.65
2022-11-10T16:48:53.781Z,2.80
2022-11-10T16:51:48.547Z,2.85
2022-11-10T16:54:34.258Z,2.40
2022-11-10T16:57:20.687Z,2.90
2022-11-10T17:00:06.557Z,2.38
2022-11-10T17:03:03.377Z,3.00
2022-11-10T17:05:48.841Z,2.80
2022-11-10T17:11:19.296Z,2.50
2022-11-10T17:14:04.488Z,2.80
2022-11-10T17:16:49.734Z,2.50
2022-11-10T17:19:35.115Z,2.65
2022-11-10T17:22:21.574Z,2.63
2022-11-10T17:25:13.490Z,2.70
2022-11-10T17:27:58.384Z,2.65
2022-11-10T17:33:28.770Z,2.23
2022-11-10T17:36:17.980Z,2.70
2022-11-10T17:39:03.176Z,2.70
2022-11-10T17:44:35.928Z,2.30
2022-11-10T17:50:06.517Z,2.53
2022-11-10T17:52:51.798Z,2.55
2022-11-10T17:55:37.016Z,2.83
2022-11-10T17:58:22.343Z,2.95
2022-11-10T18:01:14.591Z,2.58
2022-11-10T18:03:59.739Z,2.60
2022-11-10T18:09:30.427Z,2.50
2022-11-10T18:12:15.839Z,2.60
2022-11-10T18:17:45.771Z,2.53
2022-11-10T18:20:30.958Z,2.40
2022-11-10T18:23:16.367Z,2.50
2022-11-10T18:26:06.944Z,2.67
2022-11-10T18:28:52.434Z,2.60
2022-11-10T18:34:22.813Z,2.22
2022-11-10T18:37:08.126Z,2.90
2022-11-10T18:39:53.556Z,2.50
2022-11-10T18:42:38.717Z,3.22
2022-11-10T18:45:24.490Z,2.50
2022-11-10T18:48:09.585Z,2.60
2022-11-10T18:50:54.784Z,2.47
2022-11-10T18:56:25.690Z,2.58
2022-11-10T18:59:10.780Z,2.60
2022-11-10T19:01:56.401Z,2.35
2022-11-10T19:04:41.834Z,2.42
2022-11-10T19:07:27.353Z,2.55
2022-11-10T19:10:12.514Z,2.60
2022-11-10T19:12:57.446Z,2.63
2022-11-10T19:18:30.664Z,2.75
2022-11-10T19:21:20.864Z,2.70
2022-11-10T19:24:06.300Z,2.63
2022-11-10T19:26:52.164Z,2.60
2022-11-10T19:29:37.712Z,2.78
2022-11-10T19:35:11.172Z,2.53
2022-11-10T19:37:56.621Z,2.65
2022-11-10T19:40:42.712Z,2.67
2022-11-10T19:43:29.726Z,2.63
2022-11-10T19:46:19.199Z,2.75
2022-11-10T19:49:06.319Z,2.40
2022-11-10T19:51:51.843Z,2.95
2022-11-10T19:57:23.237Z,2.55
2022-11-10T20:00:08.867Z,2.70
2022-11-10T20:02:53.897Z,2.70
2022-11-10T20:08:27.680Z,2.70
2022-11-10T20:11:15.641Z,2.65
2022-11-10T20:14:02.390Z,2.40
2022-11-10T20:16:47.750Z,2.80
2022-11-10T20:19:40.923Z,2.50
2022-11-10T20:22:26.311Z,2.78
2022-11-10T20:25:11.338Z,2.65
2022-11-10T20:27:57.387Z,2.70
2022-11-10T20:30:43.593Z,2.60
2022-11-10T20:33:30.151Z,2.55
2022-11-10T20:36:20.651Z,2.38
2022-11-10T20:39:06.879Z,2.65
2022-11-10T20:41:52.619Z,2.15
2022-11-10T20:44:38.181Z,2.40
2022-11-10T20:47:24.125Z,2.30
2022-11-10T20:50:14.754Z,2.47
2022-11-10T20:53:01.449Z,2.47
2022-11-10T20:58:40.243Z,2.70
2022-11-10T21:01:27.320Z,3.83
2022-11-10T21:04:12.740Z,2.95
2022-11-10T21:06:58.447Z,2.67
2022-11-10T21:09:43.834Z,2.50
2022-11-10T21:12:47.481Z,2.75
2022-11-10T21:15:32.905Z,2.40
2022-11-10T21:21:04.989Z,2.60
2022-11-10T21:23:57.020Z,2.78
2022-11-10T21:26:42.137Z,2.50
2022-11-10T21:32:12.230Z,2.33
2022-11-10T21:34:57.254Z,2.30
2022-11-10T21:37:42.559Z,2.35
2022-11-10T21:43:12.821Z,2.40
2022-11-10T21:48:46.077Z,2.40
2022-11-10T21:51:31.388Z,2.58
2022-11-10T21:54:16.262Z,2.30
2022-11-10T21:57:01.604Z,2.20
2022-11-10T21:59:46.877Z,2.33
2022-11-10T22:05:17.200Z,2.43
2022-11-10T22:11:06.528Z,2.28
2022-11-10T22:14:10.372Z,2.50
2022-11-10T22:17:14.281Z,2.00
2022-11-10T22:19:59.414Z,2.20
2022-11-10T22:22:44.736Z,2.42
2022-11-10T22:25:29.690Z,2.25
2022-11-10T22:28:14.885Z,2.17
2022-11-10T22:31:03.074Z,2.33
2022-11-10T22:33:48.107Z,2.10
2022-11-10T22:36:33.690Z,2.40
2022-11-10T22:39:19.024Z,2.72
2022-11-10T22:42:23.074Z,2.42
2022-11-10T22:45:08.786Z,2.03
2022-11-10T22:48:12.754Z,2.38
2022-11-10T22:50:59.645Z,2.17
2022-11-10T22:53:47.278Z,2.25
2022-11-10T22:56:33.221Z,2.03
2022-11-10T22:59:18.922Z,2.30
2022-11-10T23:02:04.019Z,2.30
2022-11-10T23:04:49.481Z,2.30
2022-11-10T23:07:34.733Z,2.22
2022-11-10T23:10:20.065Z,2.40
2022-11-10T23:13:05.068Z,2.25
2022-11-10T23:15:53.101Z,2.30
2022-11-10T23:18:39.743Z,2.30
2022-11-10T23:21:27.545Z,2.20
2022-11-10T23:24:13.528Z,2.30
2022-11-10T23:26:58.569Z,2.38
2022-11-10T23:29:43.867Z,2.15
2022-11-10T23:32:29.146Z,2.40
2022-11-10T23:35:14.038Z,2.65
2022-11-10T23:37:59.711Z,2.17
2022-11-10T23:43:30.209Z,2.53
2022-11-10T23:46:15.780Z,2.25
2022-11-10T23:49:01.038Z,2.17
2022-11-10T23:51:46.356Z,2.20
2022-11-10T23:54:31.241Z,2.13
